Elmer City, Washington
Current Conditions -  °F | °C
As of 7:20 AM on Saturday 20 Dec 2014 (Local Time) from KOMK Reporting Station
Light Snow Light Snow  
Wind Chill: 33°   Ceiling: 1000
Heat Index: 33°   Visibility: 1.7mi
Dew Point: 33°   Wind: 0mph
Humidity: 100%   Direction: NA
Pressure: 29.84"   Gusts: NA
Location:  48°N, 118.95°W
Report Text: KOMK 201520Z AUTO 00000KT 1 3/4SM -SN BR OVC010 01/01 A2984 RMK AO2 RAE15SNB15 P0002 T00060006
Loading
Personal Weather Stations






























Interactive Weather Map New forecast layout! Learn more

10-Day Weather Forecast

Advertisements
Track Severe Weather on mobile